SCFI weather

Fundo Tehuén Airport
Frutillar, Los Lagos Region, Chile

Public forecast

Using degrees Celsius for public forecast. Weather courtesy of forecast.io.

Closest aviation weather report (METAR) to Fundo Tehuén Airport

Closest report is El Tepual Airport, 20.7 nm (38.3 km) S. Retrieved 2020/04/04 18:31 UTC (22 minutes ago):

SCTE 041831Z 10004KT 060V150 9999 BKN050 14/07 Q1016 NOSIG

Closest aviation forecast (TAF) to Fundo Tehuén Airport

Closest forecast is El Tepual Airport, 20.7 nm (38.3 km) S. Retrieved 2020/04/04 18:00 UTC (53 minutes ago):

TAF SCTE 041636Z 0418/0518 22005KT 9999 SCT025 BKN035 TX15/0421Z TN06/0508Z BECMG 0503/0505 30007KT BECMG 0506/0508 7000 -SHRA BKN015 OVC025 BECMG 0515/0517 23010KT